Historyczne dane pomiarowe

Dodano dane terminowe – wersja testowa.

Dane z okresu 1951-2019

Wersja bazy: 1.34 [2019-03-16, lista zmian], aktualizacja planowana na 2019-04-15

Dane meteo z obszaru Polski uzyskane na podstawie danych udostępnionych przez Instytut Meteorologii i Gospodarki Wodnej – Państwowy Instytut Badawczy.

 

Wybierz Datę:    

       

TemperaturaWilgotnośćWiatrCiśnienieOpadyŚniegCzas trwania zjawisk
 Stacja t tx tn tng RH VA  wxwx mslp ppp RRR   cm mm wxwxwxwxwxwxwx
1983-08-14 14.4 19.6 10.1 7.0-- 2.3 3.0---- 0.0------------
1983-08-13 14.7 19.5 13.4 12.5-- 6.0 8.0---- 1.0------------
1983-08-12 19.3 25.4 13.6 11.0-- 3.0 4.0---- 12.3------------
1983-08-11 21.1 27.8 13.4 11.6-- 1.7 2.0---- 0.0------------
1983-08-10 20.6 26.8 14.0 11.0-- 0.3 2.0---- 0.0------------
1983-08-09 19.7 26.6 12.3 10.0-- 3.3 1.3---- 0.0------------
1983-08-08 19.0 26.6 16.2 13.2-- 4.7 3.0---- 22.3------------
1983-08-07 17.3 24.2 11.7 8.6-- 4.3 2.7---- 1.5------------
1983-08-06 16.2 21.4 10.7 8.4-- 5.7 3.0---- 0.0------------
1983-08-05 14.0 18.8 10.7 9.4-- 4.3 2.7---- 0.0------------
1983-08-04 13.4 15.2 12.3 10.8-- 6.7 3.0---- 0.8------------
1983-08-03 15.2 20.2 13.6 12.2-- 7.7 5.3---- 9.0------------
1983-08-02 21.7 28.0 20.1 16.7-- 4.3 5.3---- 1.5------------
1983-08-01 24.1 32.2 14.6 10.6-- 2.7 6.3---- 0.0------------
1983-07-31 19.9 27.0 10.3 6.4-- 0.3 1.3---- 0.0------------
1983-07-30 17.0 21.6 15.0 13.6-- 5.3 5.0---- 0.0------------
1983-07-29 18.0 24.6 13.3 11.0-- 4.7 4.3---- 1.4------------
1983-07-28 22.5 30.0 18.1 15.9-- 5.3 4.7---- 0.0------------
1983-07-27 25.2 33.6 15.0 10.4-- 1.0 2.0---- 0.0------------
1983-07-26 21.2 29.2 11.7 7.6-- 0.0 2.0---- 0.0------------
1983-07-25 17.5 25.0 8.3 5.0-- 1.0 3.7---- 0.0------------
1983-07-24 16.3 20.6 14.0 12.0-- 5.7 3.0---- 8.8------------
1983-07-23 17.8 25.4 12.5 9.2-- 3.7 6.3---- 0.0------------
1983-07-22 13.6 16.4 10.9 8.6-- 6.7 3.7---- 1.1------------
1983-07-21 14.1 19.6 8.7 5.8-- 3.0 7.3---- 0.0------------
1983-07-20 14.9 20.8 11.3 10.0-- 6.0 4.0---- 1.4------------
1983-07-19 20.8 29.0 18.3 15.5-- 6.0 4.7---- 1.4------------
1983-07-18 24.8 33.0 15.2 12.0-- 4.0 4.3---- 0.2------------
1983-07-17 19.8 26.0 11.9 8.6-- 0.3 1.7---- 0.0------------
1983-07-16 20.3 25.2 17.4 13.6-- 5.3 3.0---- 7.4------------
1983-07-15 20.2 27.2 10.9 7.2-- 4.0 3.7---- 0.0------------
1983-07-14 20.7 26.2 16.8 15.7-- 4.3 4.3---- 0.0------------
1983-07-13 20.4 25.6 15.0 11.8-- 4.0 4.3---- 0.2------------
1983-07-12 23.0 31.4 16.4 15.0-- 4.0 4.0---- 4.8------------
1983-07-11 22.7 30.0 12.8 10.0-- 4.3 2.7---- 0.0------------
1983-07-10 23.6 31.2 11.9 8.0-- 2.7 3.3---- 0.0------------
1983-07-09 21.9 28.8 10.5 6.4-- 2.0 3.3---- 0.0------------
1983-07-08 20.2 27.8 8.8 4.1-- 0.3 2.3---- 0.0------------
1983-07-07 22.3 28.6 14.8 12.2-- 0.7 3.7---- 0.0------------
1983-07-06 22.3 29.4 12.4 8.2-- 1.3 1.7---- 0.0------------
1983-07-05 18.8 26.2 9.3 6.0-- 0.3 1.7---- 0.0------------
1983-07-04 20.3 26.5 14.4 8.2-- 3.0 4.3---- 0.0------------
1983-07-03 19.9 24.8 11.5 5.4-- 0.0 0.7---- 0.0------------
1983-07-02 17.5 22.6 11.7 10.3-- 1.7 2.7---- 0.0------------
1983-07-01 20.0 25.6 14.0 11.3-- 4.3 3.0---- 0.3------------
1983-06-30 19.0 24.4 12.6 10.0-- 2.0 2.3---- 0.0------------
1983-06-29 13.9 19.8 7.9 5.4-- 3.0 2.7---- 0.0------------
1983-06-28 14.9 19.2 13.2 10.0-- 4.3 4.0---- 0.0------------
1983-06-27 19.0 23.2 13.2 10.3-- 4.3 2.0---- 9.7------------
1983-06-26 19.7 25.8 11.5 8.0-- 0.3 3.7---- 0.0------------
1983-06-25 21.6 28.4 13.0 7.8-- 1.3 2.3---- 0.0------------
1983-06-24 21.2 28.4 10.1 5.0-- 1.0 2.0---- 0.0------------
1983-06-23 16.0 23.5 5.8 0.7-- 0.7 2.7---- 0.0------------
1983-06-22 14.5 20.6 6.9 4.7-- 0.0 3.7---- 0.0------------
1983-06-21 18.6 26.2 10.9 6.8-- 0.0 5.3---- 0.0------------
1983-06-20 18.3 25.6 7.9 4.3-- 0.0 3.7---- 0.0------------
1983-06-19 16.2 21.0 10.5 10.2-- 4.0 5.3---- 0.0------------
1983-06-18 13.5 15.6 10.7 9.4-- 5.3 3.7---- 0.0------------
1983-06-17 12.7 16.6 8.9 6.6-- 4.7 5.0---- 0.0------------
1983-06-16 13.3 18.0 8.9 7.3-- 3.3 8.0---- 0.0------------
333.2 ms

 

Źródłem pochodzenia danych jest Instytut Meteorologii i Gospodarki Wodnej – Państwowy Instytut Badawczy. Dane Instytutu Meteorologii i Gospodarki Wodnej – Państwowego Instytutu Badawczego zostały przetworzone.

Dane źródłowe można odnaleźć na stronie https://dane.imgw.pl